sensor_id;sensor_type;location;lat;lon;timestamp;temperature;humidity
16846;DHT22;8539;53.188;8.696;2022-08-03T00:01:08;19.70;99.90
16846;DHT22;8539;53.188;8.696;2022-08-03T00:03:34;19.60;99.90
16846;DHT22;8539;53.188;8.696;2022-08-03T00:06:01;19.60;99.90
16846;DHT22;8539;53.188;8.696;2022-08-03T00:08:27;19.60;99.90
16846;DHT22;8539;53.188;8.696;2022-08-03T00:10:53;19.60;99.90
16846;DHT22;8539;53.188;8.696;2022-08-03T00:13:19;19.60;99.90
16846;DHT22;8539;53.188;8.696;2022-08-03T00:15:45;19.60;99.90
16846;DHT22;8539;53.188;8.696;2022-08-03T00:18:12;19.60;99.90
16846;DHT22;8539;53.188;8.696;2022-08-03T00:20:38;19.60;99.90
16846;DHT22;8539;53.188;8.696;2022-08-03T00:23:05;19.50;99.90
16846;DHT22;8539;53.188;8.696;2022-08-03T00:25:35;19.50;99.90
16846;DHT22;8539;53.188;8.696;2022-08-03T00:28:03;19.50;99.90
16846;DHT22;8539;53.188;8.696;2022-08-03T00:30:30;19.40;99.90
16846;DHT22;8539;53.188;8.696;2022-08-03T00:32:58;19.40;99.90
16846;DHT22;8539;53.188;8.696;2022-08-03T00:35:25;19.40;99.90
16846;DHT22;8539;53.188;8.696;2022-08-03T00:37:51;19.30;99.90
16846;DHT22;8539;53.188;8.696;2022-08-03T00:40:19;19.30;99.90
16846;DHT22;8539;53.188;8.696;2022-08-03T00:42:52;19.20;99.90
16846;DHT22;8539;53.188;8.696;2022-08-03T00:45:26;19.10;99.90
16846;DHT22;8539;53.188;8.696;2022-08-03T00:47:53;19.10;99.90
16846;DHT22;8539;53.188;8.696;2022-08-03T00:50:21;19.10;99.90
16846;DHT22;8539;53.188;8.696;2022-08-03T00:52:50;19.00;99.90
16846;DHT22;8539;53.188;8.696;2022-08-03T00:55:17;19.00;99.90
16846;DHT22;8539;53.188;8.696;2022-08-03T00:57:44;19.00;99.90
16846;DHT22;8539;53.188;8.696;2022-08-03T01:00:11;19.10;99.90
16846;DHT22;8539;53.188;8.696;2022-08-03T01:02:39;19.10;99.90
16846;DHT22;8539;53.188;8.696;2022-08-03T01:05:18;19.20;99.90
16846;DHT22;8539;53.188;8.696;2022-08-03T01:13:27;19.50;99.90
16846;DHT22;8539;53.188;8.696;2022-08-03T01:16:11;19.60;99.90
16846;DHT22;8539;53.188;8.696;2022-08-03T01:22:03;19.60;99.90
16846;DHT22;8539;53.188;8.696;2022-08-03T01:30:10;19.40;99.90
16846;DHT22;8539;53.188;8.696;2022-08-03T01:33:06;19.50;99.90
16846;DHT22;8539;53.188;8.696;2022-08-03T01:35:49;19.50;99.90
16846;DHT22;8539;53.188;8.696;2022-08-03T01:38:40;19.50;99.90
16846;DHT22;8539;53.188;8.696;2022-08-03T01:41:11;19.60;99.90
16846;DHT22;8539;53.188;8.696;2022-08-03T01:43:42;19.60;99.90
16846;DHT22;8539;53.188;8.696;2022-08-03T01:46:10;19.70;99.90
16846;DHT22;8539;53.188;8.696;2022-08-03T01:48:39;19.70;99.90
16846;DHT22;8539;53.188;8.696;2022-08-03T01:51:08;19.80;99.90
16846;DHT22;8539;53.188;8.696;2022-08-03T01:53:37;19.80;99.90
16846;DHT22;8539;53.188;8.696;2022-08-03T01:56:08;19.80;99.90
16846;DHT22;8539;53.188;8.696;2022-08-03T01:58:36;19.90;99.90
16846;DHT22;8539;53.188;8.696;2022-08-03T02:01:04;19.90;99.90
16846;DHT22;8539;53.188;8.696;2022-08-03T02:03:35;19.90;99.90
16846;DHT22;8539;53.188;8.696;2022-08-03T02:06:01;19.90;99.90
16846;DHT22;8539;53.188;8.696;2022-08-03T02:08:28;19.90;99.90
16846;DHT22;8539;53.188;8.696;2022-08-03T02:10:56;19.90;99.90
16846;DHT22;8539;53.188;8.696;2022-08-03T02:13:24;19.90;99.90
16846;DHT22;8539;53.188;8.696;2022-08-03T02:15:52;19.80;99.90
16846;DHT22;8539;53.188;8.696;2022-08-03T02:18:20;19.80;99.90
16846;DHT22;8539;53.188;8.696;2022-08-03T02:20:47;19.80;99.90
16846;DHT22;8539;53.188;8.696;2022-08-03T02:23:15;19.80;99.90
16846;DHT22;8539;53.188;8.696;2022-08-03T02:25:44;19.70;99.90
16846;DHT22;8539;53.188;8.696;2022-08-03T02:28:17;19.60;99.90
16846;DHT22;8539;53.188;8.696;2022-08-03T02:30:47;19.50;99.90
16846;DHT22;8539;53.188;8.696;2022-08-03T02:33:23;19.40;99.90
16846;DHT22;8539;53.188;8.696;2022-08-03T02:35:50;19.30;99.90
16846;DHT22;8539;53.188;8.696;2022-08-03T02:38:20;19.10;99.90
16846;DHT22;8539;53.188;8.696;2022-08-03T02:40:49;19.00;99.90
16846;DHT22;8539;53.188;8.696;2022-08-03T02:43:19;18.90;99.90
16846;DHT22;8539;53.188;8.696;2022-08-03T02:45:48;18.80;99.90
16846;DHT22;8539;53.188;8.696;2022-08-03T02:48:28;18.70;99.90
16846;DHT22;8539;53.188;8.696;2022-08-03T02:50:57;18.60;99.90
16846;DHT22;8539;53.188;8.696;2022-08-03T02:53:25;18.50;99.90
16846;DHT22;8539;53.188;8.696;2022-08-03T02:55:52;18.50;99.90
16846;DHT22;8539;53.188;8.696;2022-08-03T02:58:22;18.40;99.90
16846;DHT22;8539;53.188;8.696;2022-08-03T03:00:50;18.40;99.90
16846;DHT22;8539;53.188;8.696;2022-08-03T03:03:17;18.40;99.90
16846;DHT22;8539;53.188;8.696;2022-08-03T03:05:44;18.30;99.90
16846;DHT22;8539;53.188;8.696;2022-08-03T03:08:16;18.30;99.90
16846;DHT22;8539;53.188;8.696;2022-08-03T03:10:43;18.30;99.90
16846;DHT22;8539;53.188;8.696;2022-08-03T03:13:09;18.30;99.90
16846;DHT22;8539;53.188;8.696;2022-08-03T03:15:37;18.30;99.90
16846;DHT22;8539;53.188;8.696;2022-08-03T03:18:06;18.30;99.90
16846;DHT22;8539;53.188;8.696;2022-08-03T03:20:33;18.30;99.90
16846;DHT22;8539;53.188;8.696;2022-08-03T03:23:01;18.50;99.90
16846;DHT22;8539;53.188;8.696;2022-08-03T03:25:30;18.60;99.90
16846;DHT22;8539;53.188;8.696;2022-08-03T03:27:58;18.70;99.90
16846;DHT22;8539;53.188;8.696;2022-08-03T03:30:25;18.80;99.90
16846;DHT22;8539;53.188;8.696;2022-08-03T03:32:52;18.80;99.90
16846;DHT22;8539;53.188;8.696;2022-08-03T03:35:18;18.70;99.90
16846;DHT22;8539;53.188;8.696;2022-08-03T03:37:45;18.70;99.90
16846;DHT22;8539;53.188;8.696;2022-08-03T03:40:11;18.60;99.90
16846;DHT22;8539;53.188;8.696;2022-08-03T03:42:38;18.50;99.90
16846;DHT22;8539;53.188;8.696;2022-08-03T03:45:06;18.50;99.90
16846;DHT22;8539;53.188;8.696;2022-08-03T03:47:33;18.40;99.90
16846;DHT22;8539;53.188;8.696;2022-08-03T03:50:04;18.30;99.90
16846;DHT22;8539;53.188;8.696;2022-08-03T03:52:32;18.20;99.90
16846;DHT22;8539;53.188;8.696;2022-08-03T03:54:58;18.20;99.90
16846;DHT22;8539;53.188;8.696;2022-08-03T03:57:25;18.10;99.90
16846;DHT22;8539;53.188;8.696;2022-08-03T03:59:51;18.10;99.90
16846;DHT22;8539;53.188;8.696;2022-08-03T04:02:17;18.00;99.90
16846;DHT22;8539;53.188;8.696;2022-08-03T04:04:43;17.90;99.90
16846;DHT22;8539;53.188;8.696;2022-08-03T04:07:34;17.90;99.90
16846;DHT22;8539;53.188;8.696;2022-08-03T04:10:27;17.80;99.90
16846;DHT22;8539;53.188;8.696;2022-08-03T04:13:15;17.80;99.90
16846;DHT22;8539;53.188;8.696;2022-08-03T04:15:42;17.80;99.90
16846;DHT22;8539;53.188;8.696;2022-08-03T04:18:12;17.70;99.90
16846;DHT22;8539;53.188;8.696;2022-08-03T04:20:39;17.70;99.90
16846;DHT22;8539;53.188;8.696;2022-08-03T04:23:10;17.70;99.90
16846;DHT22;8539;53.188;8.696;2022-08-03T04:25:39;17.70;99.90
16846;DHT22;8539;53.188;8.696;2022-08-03T04:28:07;17.70;99.90
16846;DHT22;8539;53.188;8.696;2022-08-03T04:30:36;17.70;99.90
16846;DHT22;8539;53.188;8.696;2022-08-03T04:33:03;17.70;99.90
16846;DHT22;8539;53.188;8.696;2022-08-03T04:35:32;17.70;99.90
16846;DHT22;8539;53.188;8.696;2022-08-03T04:38:02;17.70;99.90
16846;DHT22;8539;53.188;8.696;2022-08-03T04:40:36;17.70;99.90
16846;DHT22;8539;53.188;8.696;2022-08-03T04:43:04;17.70;99.90
16846;DHT22;8539;53.188;8.696;2022-08-03T04:45:32;17.70;99.90
16846;DHT22;8539;53.188;8.696;2022-08-03T04:47:59;17.80;99.90
16846;DHT22;8539;53.188;8.696;2022-08-03T04:50:25;17.80;99.90
16846;DHT22;8539;53.188;8.696;2022-08-03T04:52:53;17.90;99.90
16846;DHT22;8539;53.188;8.696;2022-08-03T04:55:30;17.90;99.90
16846;DHT22;8539;53.188;8.696;2022-08-03T04:57:58;17.90;99.90
16846;DHT22;8539;53.188;8.696;2022-08-03T05:00:25;18.00;99.90
16846;DHT22;8539;53.188;8.696;2022-08-03T05:02:52;18.10;99.90
16846;DHT22;8539;53.188;8.696;2022-08-03T05:05:19;18.10;99.90
16846;DHT22;8539;53.188;8.696;2022-08-03T05:07:45;18.20;99.90
16846;DHT22;8539;53.188;8.696;2022-08-03T05:10:12;18.40;99.90
16846;DHT22;8539;53.188;8.696;2022-08-03T05:12:39;18.60;99.90
16846;DHT22;8539;53.188;8.696;2022-08-03T05:15:06;18.70;99.90
16846;DHT22;8539;53.188;8.696;2022-08-03T05:17:32;18.80;99.90
16846;DHT22;8539;53.188;8.696;2022-08-03T05:19:59;19.00;99.90
16846;DHT22;8539;53.188;8.696;2022-08-03T05:22:26;19.10;99.90
16846;DHT22;8539;53.188;8.696;2022-08-03T05:24:52;19.30;99.90
16846;DHT22;8539;53.188;8.696;2022-08-03T05:27:18;19.40;99.90
16846;DHT22;8539;53.188;8.696;2022-08-03T05:29:45;19.50;99.90
16846;DHT22;8539;53.188;8.696;2022-08-03T05:32:12;19.60;99.90
16846;DHT22;8539;53.188;8.696;2022-08-03T05:34:38;19.90;99.90
16846;DHT22;8539;53.188;8.696;2022-08-03T05:37:04;20.20;99.90
16846;DHT22;8539;53.188;8.696;2022-08-03T05:39:32;20.30;99.90
16846;DHT22;8539;53.188;8.696;2022-08-03T05:41:59;20.40;99.90
16846;DHT22;8539;53.188;8.696;2022-08-03T05:44:25;20.60;99.90
16846;DHT22;8539;53.188;8.696;2022-08-03T05:46:51;20.70;99.90
16846;DHT22;8539;53.188;8.696;2022-08-03T05:49:18;20.90;99.90
16846;DHT22;8539;53.188;8.696;2022-08-03T05:51:45;21.60;99.90
16846;DHT22;8539;53.188;8.696;2022-08-03T05:54:11;22.20;99.90
16846;DHT22;8539;53.188;8.696;2022-08-03T05:56:37;22.20;99.90
16846;DHT22;8539;53.188;8.696;2022-08-03T05:59:06;22.20;99.90
16846;DHT22;8539;53.188;8.696;2022-08-03T06:01:32;22.50;99.90
16846;DHT22;8539;53.188;8.696;2022-08-03T06:03:58;22.50;99.90
16846;DHT22;8539;53.188;8.696;2022-08-03T06:06:24;22.70;99.90
16846;DHT22;8539;53.188;8.696;2022-08-03T06:08:51;22.90;99.90
16846;DHT22;8539;53.188;8.696;2022-08-03T06:11:17;23.00;99.90
16846;DHT22;8539;53.188;8.696;2022-08-03T06:13:44;23.10;99.90
16846;DHT22;8539;53.188;8.696;2022-08-03T06:16:10;23.10;99.90
16846;DHT22;8539;53.188;8.696;2022-08-03T06:18:37;23.00;99.90
16846;DHT22;8539;53.188;8.696;2022-08-03T06:21:03;22.90;99.90
16846;DHT22;8539;53.188;8.696;2022-08-03T06:23:30;22.90;99.90
16846;DHT22;8539;53.188;8.696;2022-08-03T06:25:56;22.80;99.90
16846;DHT22;8539;53.188;8.696;2022-08-03T06:28:23;22.70;99.90
16846;DHT22;8539;53.188;8.696;2022-08-03T06:30:50;22.80;99.90
16846;DHT22;8539;53.188;8.696;2022-08-03T06:33:16;23.10;99.90
16846;DHT22;8539;53.188;8.696;2022-08-03T06:35:42;23.60;99.90
16846;DHT22;8539;53.188;8.696;2022-08-03T06:38:08;23.90;99.90
16846;DHT22;8539;53.188;8.696;2022-08-03T06:40:35;24.50;99.90
16846;DHT22;8539;53.188;8.696;2022-08-03T06:43:05;24.70;99.90
16846;DHT22;8539;53.188;8.696;2022-08-03T06:45:32;24.50;99.90
16846;DHT22;8539;53.188;8.696;2022-08-03T06:48:02;24.20;99.90
16846;DHT22;8539;53.188;8.696;2022-08-03T06:50:29;24.10;99.90
16846;DHT22;8539;53.188;8.696;2022-08-03T06:52:56;24.20;99.90
16846;DHT22;8539;53.188;8.696;2022-08-03T06:55:22;24.50;99.90
16846;DHT22;8539;53.188;8.696;2022-08-03T06:57:49;24.80;99.90
16846;DHT22;8539;53.188;8.696;2022-08-03T07:00:15;25.00;99.90
16846;DHT22;8539;53.188;8.696;2022-08-03T07:02:41;24.90;99.90
16846;DHT22;8539;53.188;8.696;2022-08-03T07:05:08;24.70;99.90
16846;DHT22;8539;53.188;8.696;2022-08-03T07:07:35;24.60;99.90
16846;DHT22;8539;53.188;8.696;2022-08-03T07:10:03;24.50;99.90
16846;DHT22;8539;53.188;8.696;2022-08-03T07:12:31;24.40;99.90
16846;DHT22;8539;53.188;8.696;2022-08-03T07:14:58;24.30;99.90
16846;DHT22;8539;53.188;8.696;2022-08-03T07:17:25;24.30;99.90
16846;DHT22;8539;53.188;8.696;2022-08-03T07:19:51;24.40;99.90
16846;DHT22;8539;53.188;8.696;2022-08-03T07:22:17;24.50;99.90
16846;DHT22;8539;53.188;8.696;2022-08-03T07:24:43;24.50;99.90
16846;DHT22;8539;53.188;8.696;2022-08-03T07:27:10;24.60;99.90
16846;DHT22;8539;53.188;8.696;2022-08-03T07:29:37;24.60;99.90
16846;DHT22;8539;53.188;8.696;2022-08-03T07:32:04;24.70;99.90
16846;DHT22;8539;53.188;8.696;2022-08-03T07:34:31;24.70;99.90
16846;DHT22;8539;53.188;8.696;2022-08-03T07:36:57;24.70;99.90
16846;DHT22;8539;53.188;8.696;2022-08-03T07:39:23;24.70;99.90
16846;DHT22;8539;53.188;8.696;2022-08-03T07:41:49;24.70;99.90
16846;DHT22;8539;53.188;8.696;2022-08-03T07:44:17;24.60;99.90
16846;DHT22;8539;53.188;8.696;2022-08-03T07:46:44;24.70;99.90
16846;DHT22;8539;53.188;8.696;2022-08-03T07:49:10;24.70;99.90
16846;DHT22;8539;53.188;8.696;2022-08-03T07:51:37;24.80;99.90
16846;DHT22;8539;53.188;8.696;2022-08-03T07:54:04;25.00;99.90
16846;DHT22;8539;53.188;8.696;2022-08-03T07:56:30;25.10;99.90
16846;DHT22;8539;53.188;8.696;2022-08-03T07:58:57;25.30;99.90
16846;DHT22;8539;53.188;8.696;2022-08-03T08:01:23;25.40;99.90
16846;DHT22;8539;53.188;8.696;2022-08-03T08:03:50;25.50;99.90
16846;DHT22;8539;53.188;8.696;2022-08-03T08:06:16;25.50;99.90
16846;DHT22;8539;53.188;8.696;2022-08-03T08:08:42;25.60;99.90
16846;DHT22;8539;53.188;8.696;2022-08-03T08:11:09;25.60;99.90
16846;DHT22;8539;53.188;8.696;2022-08-03T08:13:35;25.60;99.90
16846;DHT22;8539;53.188;8.696;2022-08-03T08:16:04;25.60;99.90
16846;DHT22;8539;53.188;8.696;2022-08-03T08:18:30;25.60;99.90
16846;DHT22;8539;53.188;8.696;2022-08-03T08:20:57;25.60;99.90
16846;DHT22;8539;53.188;8.696;2022-08-03T08:23:23;25.70;99.90
16846;DHT22;8539;53.188;8.696;2022-08-03T08:25:51;25.80;99.90
16846;DHT22;8539;53.188;8.696;2022-08-03T08:28:21;25.90;99.90
16846;DHT22;8539;53.188;8.696;2022-08-03T08:30:48;25.90;99.90
16846;DHT22;8539;53.188;8.696;2022-08-03T08:33:15;25.90;99.90
16846;DHT22;8539;53.188;8.696;2022-08-03T08:35:41;25.90;99.90
16846;DHT22;8539;53.188;8.696;2022-08-03T08:38:08;25.90;99.90
16846;DHT22;8539;53.188;8.696;2022-08-03T08:40:34;26.00;99.90
16846;DHT22;8539;53.188;8.696;2022-08-03T08:43:01;26.20;99.90
16846;DHT22;8539;53.188;8.696;2022-08-03T08:45:27;26.40;99.90
16846;DHT22;8539;53.188;8.696;2022-08-03T08:47:54;26.50;99.90
16846;DHT22;8539;53.188;8.696;2022-08-03T08:50:22;26.60;99.90
16846;DHT22;8539;53.188;8.696;2022-08-03T08:52:49;26.60;99.90
16846;DHT22;8539;53.188;8.696;2022-08-03T08:55:22;26.80;99.90
16846;DHT22;8539;53.188;8.696;2022-08-03T08:58:00;26.90;99.90
16846;DHT22;8539;53.188;8.696;2022-08-03T09:00:27;27.10;99.90
16846;DHT22;8539;53.188;8.696;2022-08-03T09:02:55;27.30;99.90
16846;DHT22;8539;53.188;8.696;2022-08-03T09:05:22;27.20;99.90
16846;DHT22;8539;53.188;8.696;2022-08-03T09:07:48;27.10;99.90
16846;DHT22;8539;53.188;8.696;2022-08-03T09:10:16;27.10;99.90
16846;DHT22;8539;53.188;8.696;2022-08-03T09:12:46;27.00;99.90
16846;DHT22;8539;53.188;8.696;2022-08-03T09:15:24;27.00;99.90
16846;DHT22;8539;53.188;8.696;2022-08-03T09:17:53;27.10;99.90
16846;DHT22;8539;53.188;8.696;2022-08-03T09:20:21;27.20;99.90
16846;DHT22;8539;53.188;8.696;2022-08-03T09:22:58;27.30;99.90
16846;DHT22;8539;53.188;8.696;2022-08-03T09:28:12;27.60;99.90
16846;DHT22;8539;53.188;8.696;2022-08-03T09:30:41;27.70;99.80
16846;DHT22;8539;53.188;8.696;2022-08-03T09:33:09;27.80;99.80
16846;DHT22;8539;53.188;8.696;2022-08-03T09:35:44;28.00;99.80
16846;DHT22;8539;53.188;8.696;2022-08-03T09:38:18;28.20;99.60
16846;DHT22;8539;53.188;8.696;2022-08-03T09:40:49;28.40;99.50
16846;DHT22;8539;53.188;8.696;2022-08-03T09:43:15;28.60;99.20
16846;DHT22;8539;53.188;8.696;2022-08-03T09:45:42;28.60;98.90
16846;DHT22;8539;53.188;8.696;2022-08-03T09:48:41;28.70;98.50
16846;DHT22;8539;53.188;8.696;2022-08-03T09:51:07;28.90;98.10
16846;DHT22;8539;53.188;8.696;2022-08-03T09:53:44;29.00;97.80
16846;DHT22;8539;53.188;8.696;2022-08-03T09:56:11;29.20;97.30
16846;DHT22;8539;53.188;8.696;2022-08-03T09:58:45;29.30;97.00
16846;DHT22;8539;53.188;8.696;2022-08-03T10:01:16;29.40;96.60
16846;DHT22;8539;53.188;8.696;2022-08-03T10:03:56;29.50;96.30
16846;DHT22;8539;53.188;8.696;2022-08-03T10:06:23;29.50;96.00
16846;DHT22;8539;53.188;8.696;2022-08-03T10:09:08;29.40;95.60
16846;DHT22;8539;53.188;8.696;2022-08-03T10:11:36;29.30;95.40
16846;DHT22;8539;53.188;8.696;2022-08-03T10:14:07;29.30;95.10
16846;DHT22;8539;53.188;8.696;2022-08-03T10:16:36;29.30;95.00
16846;DHT22;8539;53.188;8.696;2022-08-03T10:19:04;29.40;94.90
16846;DHT22;8539;53.188;8.696;2022-08-03T10:21:36;29.60;94.70
16846;DHT22;8539;53.188;8.696;2022-08-03T10:24:07;29.60;94.60
16846;DHT22;8539;53.188;8.696;2022-08-03T10:26:37;29.70;94.40
16846;DHT22;8539;53.188;8.696;2022-08-03T10:29:06;29.70;94.30
16846;DHT22;8539;53.188;8.696;2022-08-03T10:31:42;29.70;94.10
16846;DHT22;8539;53.188;8.696;2022-08-03T10:34:22;29.80;93.80
16846;DHT22;8539;53.188;8.696;2022-08-03T10:36:51;29.90;93.60
16846;DHT22;8539;53.188;8.696;2022-08-03T10:39:21;29.90;93.50
16846;DHT22;8539;53.188;8.696;2022-08-03T10:41:49;29.90;93.40
16846;DHT22;8539;53.188;8.696;2022-08-03T10:44:21;30.10;93.20
16846;DHT22;8539;53.188;8.696;2022-08-03T10:46:48;30.10;93.00
16846;DHT22;8539;53.188;8.696;2022-08-03T10:49:17;30.20;92.90
16846;DHT22;8539;53.188;8.696;2022-08-03T10:51:45;30.30;92.80
16846;DHT22;8539;53.188;8.696;2022-08-03T10:57:02;30.50;92.50
16846;DHT22;8539;53.188;8.696;2022-08-03T11:02:14;30.60;92.00
16846;DHT22;8539;53.188;8.696;2022-08-03T11:04:42;30.60;91.80
16846;DHT22;8539;53.188;8.696;2022-08-03T11:07:22;30.60;91.40
16846;DHT22;8539;53.188;8.696;2022-08-03T11:09:50;30.40;91.00
16846;DHT22;8539;53.188;8.696;2022-08-03T11:12:30;30.30;90.80
16846;DHT22;8539;53.188;8.696;2022-08-03T11:15:05;30.40;90.60
16846;DHT22;8539;53.188;8.696;2022-08-03T11:17:33;30.50;90.50
16846;DHT22;8539;53.188;8.696;2022-08-03T11:20:00;30.60;90.40
16846;DHT22;8539;53.188;8.696;2022-08-03T11:22:47;30.90;90.10
16846;DHT22;8539;53.188;8.696;2022-08-03T11:25:13;31.00;89.10
16846;DHT22;8539;53.188;8.696;2022-08-03T11:27:41;31.10;88.30
16846;DHT22;8539;53.188;8.696;2022-08-03T11:45:34;30.80;86.40
16846;DHT22;8539;53.188;8.696;2022-08-03T11:48:12;30.80;86.10
16846;DHT22;8539;53.188;8.696;2022-08-03T11:50:40;30.80;85.90
16846;DHT22;8539;53.188;8.696;2022-08-03T11:53:14;30.90;86.10
16846;DHT22;8539;53.188;8.696;2022-08-03T11:55:43;31.10;85.90
16846;DHT22;8539;53.188;8.696;2022-08-03T11:58:19;31.10;85.80
16846;DHT22;8539;53.188;8.696;2022-08-03T12:00:45;31.10;85.50
16846;DHT22;8539;53.188;8.696;2022-08-03T12:03:14;31.10;85.20
16846;DHT22;8539;53.188;8.696;2022-08-03T12:05:49;31.10;84.90
16846;DHT22;8539;53.188;8.696;2022-08-03T12:08:27;31.30;84.50
16846;DHT22;8539;53.188;8.696;2022-08-03T12:10:55;31.40;84.10
16846;DHT22;8539;53.188;8.696;2022-08-03T12:13:23;31.50;83.80
16846;DHT22;8539;53.188;8.696;2022-08-03T12:15:55;31.60;83.50
16846;DHT22;8539;53.188;8.696;2022-08-03T12:18:22;31.70;83.30
16846;DHT22;8539;53.188;8.696;2022-08-03T12:20:50;31.70;82.90
16846;DHT22;8539;53.188;8.696;2022-08-03T12:23:19;31.70;82.50
16846;DHT22;8539;53.188;8.696;2022-08-03T12:25:46;31.80;81.60
16846;DHT22;8539;53.188;8.696;2022-08-03T12:28:15;31.70;81.20
16846;DHT22;8539;53.188;8.696;2022-08-03T12:30:42;31.60;80.90
16846;DHT22;8539;53.188;8.696;2022-08-03T12:35:38;31.60;80.60
16846;DHT22;8539;53.188;8.696;2022-08-03T12:38:05;31.50;80.40
16846;DHT22;8539;53.188;8.696;2022-08-03T12:40:31;31.40;80.50
16846;DHT22;8539;53.188;8.696;2022-08-03T12:42:57;31.40;80.50
16846;DHT22;8539;53.188;8.696;2022-08-03T12:45:25;31.40;80.30
16846;DHT22;8539;53.188;8.696;2022-08-03T12:47:58;31.30;79.90
16846;DHT22;8539;53.188;8.696;2022-08-03T12:50:33;31.30;79.60
16846;DHT22;8539;53.188;8.696;2022-08-03T12:53:01;31.40;79.30
16846;DHT22;8539;53.188;8.696;2022-08-03T12:55:29;31.50;79.20
16846;DHT22;8539;53.188;8.696;2022-08-03T12:57:59;31.60;79.00
16846;DHT22;8539;53.188;8.696;2022-08-03T13:00:26;31.60;78.90
16846;DHT22;8539;53.188;8.696;2022-08-03T13:03:03;31.60;79.10
16846;DHT22;8539;53.188;8.696;2022-08-03T13:05:31;31.70;79.00
16846;DHT22;8539;53.188;8.696;2022-08-03T13:07:57;31.80;78.90
16846;DHT22;8539;53.188;8.696;2022-08-03T13:10:31;31.90;78.70
16846;DHT22;8539;53.188;8.696;2022-08-03T13:12:58;32.00;78.50
16846;DHT22;8539;53.188;8.696;2022-08-03T13:15:26;32.20;77.50
16846;DHT22;8539;53.188;8.696;2022-08-03T13:17:56;32.20;76.60
16846;DHT22;8539;53.188;8.696;2022-08-03T13:20:23;32.20;76.20
16846;DHT22;8539;53.188;8.696;2022-08-03T13:22:50;32.20;75.80
16846;DHT22;8539;53.188;8.696;2022-08-03T13:25:16;32.30;75.30
16846;DHT22;8539;53.188;8.696;2022-08-03T13:27:43;32.40;75.10
16846;DHT22;8539;53.188;8.696;2022-08-03T13:30:09;32.30;74.80
16846;DHT22;8539;53.188;8.696;2022-08-03T13:32:35;32.20;74.90
16846;DHT22;8539;53.188;8.696;2022-08-03T13:35:02;32.30;74.80
16846;DHT22;8539;53.188;8.696;2022-08-03T13:37:29;32.40;74.70
16846;DHT22;8539;53.188;8.696;2022-08-03T13:39:57;32.50;74.60
16846;DHT22;8539;53.188;8.696;2022-08-03T13:42:24;32.50;74.60
16846;DHT22;8539;53.188;8.696;2022-08-03T13:44:51;32.30;74.30
16846;DHT22;8539;53.188;8.696;2022-08-03T13:47:19;32.10;74.10
16846;DHT22;8539;53.188;8.696;2022-08-03T13:49:46;32.00;74.00
16846;DHT22;8539;53.188;8.696;2022-08-03T13:52:12;32.00;74.00
16846;DHT22;8539;53.188;8.696;2022-08-03T13:54:38;32.10;73.90
16846;DHT22;8539;53.188;8.696;2022-08-03T13:57:05;32.10;74.00
16846;DHT22;8539;53.188;8.696;2022-08-03T13:59:31;32.20;74.10
16846;DHT22;8539;53.188;8.696;2022-08-03T14:01:57;32.30;74.10
16846;DHT22;8539;53.188;8.696;2022-08-03T14:04:23;32.40;74.10
16846;DHT22;8539;53.188;8.696;2022-08-03T14:06:49;32.50;74.00
16846;DHT22;8539;53.188;8.696;2022-08-03T14:09:16;32.60;73.70
16846;DHT22;8539;53.188;8.696;2022-08-03T14:11:43;32.60;73.40
16846;DHT22;8539;53.188;8.696;2022-08-03T14:14:10;32.70;73.30
16846;DHT22;8539;53.188;8.696;2022-08-03T14:16:36;32.80;73.00
16846;DHT22;8539;53.188;8.696;2022-08-03T14:19:03;32.90;72.50
16846;DHT22;8539;53.188;8.696;2022-08-03T14:21:29;32.90;72.10
16846;DHT22;8539;53.188;8.696;2022-08-03T14:23:56;32.90;72.00
16846;DHT22;8539;53.188;8.696;2022-08-03T14:26:22;33.00;72.00
16846;DHT22;8539;53.188;8.696;2022-08-03T14:28:48;33.10;71.60
16846;DHT22;8539;53.188;8.696;2022-08-03T14:31:14;33.20;71.10
16846;DHT22;8539;53.188;8.696;2022-08-03T14:33:41;33.10;70.40
16846;DHT22;8539;53.188;8.696;2022-08-03T14:36:07;33.10;69.90
16846;DHT22;8539;53.188;8.696;2022-08-03T14:38:33;33.20;69.60
16846;DHT22;8539;53.188;8.696;2022-08-03T14:40:59;33.40;69.00
16846;DHT22;8539;53.188;8.696;2022-08-03T14:43:25;33.40;68.80
16846;DHT22;8539;53.188;8.696;2022-08-03T14:45:52;33.40;68.30
16846;DHT22;8539;53.188;8.696;2022-08-03T14:48:19;33.50;67.60
16846;DHT22;8539;53.188;8.696;2022-08-03T14:50:46;33.50;66.90
16846;DHT22;8539;53.188;8.696;2022-08-03T14:53:12;33.50;66.50
16846;DHT22;8539;53.188;8.696;2022-08-03T14:55:38;33.50;66.30
16846;DHT22;8539;53.188;8.696;2022-08-03T14:58:04;33.60;66.00
16846;DHT22;8539;53.188;8.696;2022-08-03T15:00:33;33.70;65.70
16846;DHT22;8539;53.188;8.696;2022-08-03T15:03:00;33.70;65.60
16846;DHT22;8539;53.188;8.696;2022-08-03T15:05:27;33.80;65.60
16846;DHT22;8539;53.188;8.696;2022-08-03T15:07:53;33.80;65.40
16846;DHT22;8539;53.188;8.696;2022-08-03T15:10:19;33.70;65.10
16846;DHT22;8539;53.188;8.696;2022-08-03T15:12:45;33.70;64.90
16846;DHT22;8539;53.188;8.696;2022-08-03T15:15:12;33.60;64.80
16846;DHT22;8539;53.188;8.696;2022-08-03T15:17:38;33.60;64.80
16846;DHT22;8539;53.188;8.696;2022-08-03T15:20:05;33.70;64.70
16846;DHT22;8539;53.188;8.696;2022-08-03T15:22:33;33.60;64.60
16846;DHT22;8539;53.188;8.696;2022-08-03T15:25:02;33.40;64.60
16846;DHT22;8539;53.188;8.696;2022-08-03T15:27:28;33.30;64.60
16846;DHT22;8539;53.188;8.696;2022-08-03T15:29:54;33.20;64.50
16846;DHT22;8539;53.188;8.696;2022-08-03T15:32:21;33.10;64.50
16846;DHT22;8539;53.188;8.696;2022-08-03T15:34:47;33.00;64.50
16846;DHT22;8539;53.188;8.696;2022-08-03T15:37:13;32.80;64.60
16846;DHT22;8539;53.188;8.696;2022-08-03T15:39:39;32.70;64.80
16846;DHT22;8539;53.188;8.696;2022-08-03T15:42:06;32.60;64.90
16846;DHT22;8539;53.188;8.696;2022-08-03T15:44:32;32.60;64.90
16846;DHT22;8539;53.188;8.696;2022-08-03T15:46:58;32.40;65.00
16846;DHT22;8539;53.188;8.696;2022-08-03T15:49:24;32.30;65.30
16846;DHT22;8539;53.188;8.696;2022-08-03T15:51:50;32.20;65.60
16846;DHT22;8539;53.188;8.696;2022-08-03T15:54:17;32.20;65.80
16846;DHT22;8539;53.188;8.696;2022-08-03T15:56:43;32.20;66.10
16846;DHT22;8539;53.188;8.696;2022-08-03T15:59:10;32.30;66.10
16846;DHT22;8539;53.188;8.696;2022-08-03T16:01:37;32.30;66.00
16846;DHT22;8539;53.188;8.696;2022-08-03T16:04:04;32.30;66.00
16846;DHT22;8539;53.188;8.696;2022-08-03T16:06:30;32.30;65.80
16846;DHT22;8539;53.188;8.696;2022-08-03T16:08:57;32.30;65.60
16846;DHT22;8539;53.188;8.696;2022-08-03T16:11:24;32.30;65.40
16846;DHT22;8539;53.188;8.696;2022-08-03T16:13:50;32.40;65.20
16846;DHT22;8539;53.188;8.696;2022-08-03T16:16:16;32.40;65.30
16846;DHT22;8539;53.188;8.696;2022-08-03T16:18:42;32.40;65.20
16846;DHT22;8539;53.188;8.696;2022-08-03T16:21:09;32.50;65.10
16846;DHT22;8539;53.188;8.696;2022-08-03T16:23:35;32.60;65.10
16846;DHT22;8539;53.188;8.696;2022-08-03T16:26:03;32.70;65.10
16846;DHT22;8539;53.188;8.696;2022-08-03T16:28:29;32.80;65.20
16846;DHT22;8539;53.188;8.696;2022-08-03T16:30:56;32.80;64.90
16846;DHT22;8539;53.188;8.696;2022-08-03T16:33:22;32.80;64.80